หน้าหลัก
METAR-TAF:

METAR-TAF

ท่าอากาศยาน :

ดาการ์, เซเนกัล

ละติจูด: 14-44N, ลองจิจูด: 017-30W, ความสูง: 27 ม.

การสังเกตสภาพอากาศปัจจุบัน

รายงานได้ทำขึ้นเมื่อ 50 นาทีที่แล้ว ณ เวลา 08:00 UTC
ลม 8 นอตจากเหนือ/ตะวันออกเฉียงเหนือ
อุณหภูมิ 21°C
ความชื้น 94%
ความกดอากาศ 1013 hPa
ทัศนวิสัย: 8000 ม.

METAR: GOOY 250800Z 02008KT 8000 NSC 21/20 Q1013

เวลา: 08:50 (08:50 UTC)

การพยากรณ์

รายงานได้ทำขึ้นเมื่อ 3 ชั่วโมงและ 50 นาทีที่แล้ว ณ เวลา 05:00 UTC
การพยากรณ์มีผลตั้งแต่วันที่ 25 ณ เวลา 06 UTC จนถึงวันที่ 26 ณ เวลา 12 UTC
ลม 12 นอตจากเหนือ/ตะวันออกเฉียงเหนือ
ทัศนวิสัย: 8000 ม.

TAF: GOOY 250500Z 2506/2612 02012KT 8000 NSC

สังเกตการณ์สภาพอากาศและพยากรณ์อากาศของสนามบินมากกว่า 4000 แห่ง (รายงาน METAR และ TAF).

สถานีที่ดูได้จะแสดงไว้ด้วยจุดสีเหลืองและสีแดงบนแผนที่.

เลื่อนเมาส์ไปเหนือจุดเพื่อดูชื่อสถานี.

แล้วคลิกเพื่อดูสังเกตการณ์และการพยากรณ์สภาพอากาศ.

ในการเปลี่ยนแผนที่: คลิกที่ปุ่มสีเขียวที่มีกากบาทสีดำเพื่อซูมเข้า; ที่ปุ่มสีเขียวที่มีขีดเพื่อซูมออก; หรือที่ลูกศรสีเขียวเพื่อไปยังแผนที่ที่อยู่ติดกัน.


METAR-TAF: